createdAt,value
2019-05-25T00:02:13.934Z,63.83
2019-05-25T00:04:43.481Z,63.68
2019-05-25T00:07:10.237Z,63.61
2019-05-25T00:09:36.939Z,63.95
2019-05-25T00:12:04.077Z,64.36
2019-05-25T00:14:31.144Z,64.24
2019-05-25T00:16:57.886Z,64.36
2019-05-25T00:19:27.429Z,64.52
2019-05-25T00:21:54.161Z,64.58
2019-05-25T00:24:20.909Z,64.93
2019-05-25T00:26:47.642Z,65.22
2019-05-25T00:29:14.756Z,65.38
2019-05-25T00:31:41.470Z,65.68
2019-05-25T00:34:08.208Z,66.02
2019-05-25T00:36:35.055Z,66.00
2019-05-25T00:39:01.935Z,66.07
2019-05-25T00:41:28.718Z,65.73
2019-05-25T00:43:55.790Z,65.58
2019-05-25T00:46:22.520Z,65.74
2019-05-25T00:48:49.242Z,66.20
2019-05-25T00:51:15.970Z,66.31
2019-05-25T00:53:43.056Z,66.38
2019-05-25T00:56:09.967Z,66.28
2019-05-25T00:58:36.799Z,66.55
2019-05-25T01:01:03.540Z,66.76
2019-05-25T01:03:30.252Z,66.51
2019-05-25T01:05:57.070Z,66.24
2019-05-25T01:08:23.772Z,66.14
2019-05-25T01:10:50.499Z,66.50
2019-05-25T01:13:17.206Z,66.74
2019-05-25T01:15:43.937Z,67.18
2019-05-25T01:18:12.575Z,66.97
2019-05-25T01:20:39.296Z,67.54
2019-05-25T01:23:06.066Z,68.03
2019-05-25T01:25:33.106Z,68.07
2019-05-25T01:27:59.988Z,68.23
2019-05-25T01:30:26.720Z,67.79
2019-05-25T01:32:53.438Z,67.70
2019-05-25T01:35:20.150Z,67.98
2019-05-25T01:37:48.616Z,67.98
2019-05-25T01:40:17.790Z,67.78
2019-05-25T01:42:44.828Z,67.90
2019-05-25T01:45:11.565Z,68.61
2019-05-25T01:47:38.306Z,68.78
2019-05-25T01:50:05.450Z,68.43
2019-05-25T01:52:32.194Z,68.38
2019-05-25T01:55:00.512Z,68.25
2019-05-25T01:57:27.631Z,68.09
2019-05-25T01:59:54.615Z,68.13
2019-05-25T02:02:23.304Z,68.17
2019-05-25T02:04:50.042Z,68.33
2019-05-25T02:07:16.781Z,68.53
2019-05-25T02:09:43.500Z,68.52
2019-05-25T02:12:10.231Z,68.81
2019-05-25T02:14:36.934Z,68.78
2019-05-25T02:17:05.188Z,68.75
2019-05-25T02:19:31.991Z,68.56
2019-05-25T02:21:58.760Z,69.00
2019-05-25T02:24:25.485Z,68.92
2019-05-25T02:26:52.231Z,68.85
2019-05-25T02:29:18.984Z,69.17
2019-05-25T02:31:45.984Z,69.09
2019-05-25T02:34:13.458Z,69.39
2019-05-25T02:36:40.169Z,69.30
2019-05-25T02:39:07.016Z,69.19
2019-05-25T02:41:34.385Z,69.14
2019-05-25T02:44:01.149Z,68.92
2019-05-25T02:46:27.852Z,68.82
2019-05-25T02:48:55.216Z,69.23
2019-05-25T02:51:21.914Z,69.03
2019-05-25T02:53:49.305Z,69.05
2019-05-25T02:56:16.044Z,69.50
2019-05-25T02:58:42.759Z,69.47
2019-05-25T03:01:09.463Z,69.92
2019-05-25T03:03:36.163Z,69.70
2019-05-25T03:06:04.247Z,69.55
2019-05-25T03:08:30.995Z,69.07
2019-05-25T03:10:59.645Z,69.58
2019-05-25T03:13:27.020Z,69.48
2019-05-25T03:15:53.850Z,69.59
2019-05-25T03:18:20.562Z,69.47
2019-05-25T03:20:47.276Z,69.84
2019-05-25T03:23:14.124Z,69.76
2019-05-25T03:25:49.274Z,69.73
2019-05-25T03:28:09.437Z,69.44
2019-05-25T03:30:36.537Z,68.96
2019-05-25T03:33:03.327Z,69.39
2019-05-25T03:35:30.418Z,69.64
2019-05-25T03:37:57.327Z,69.72
2019-05-25T03:40:24.040Z,70.17
2019-05-25T03:42:50.778Z,70.29
2019-05-25T03:45:17.527Z,70.50
2019-05-25T03:47:44.250Z,70.45
2019-05-25T03:50:11.032Z,70.38
2019-05-25T03:52:37.760Z,70.51
2019-05-25T03:55:04.573Z,70.59
2019-05-25T03:57:31.251Z,70.77
2019-05-25T03:59:57.969Z,70.38
2019-05-25T04:02:25.864Z,70.73
2019-05-25T04:04:52.592Z,70.67
2019-05-25T04:07:19.277Z,70.41
2019-05-25T04:09:47.416Z,70.47
2019-05-25T04:12:14.127Z,70.10
2019-05-25T04:14:41.268Z,70.07
2019-05-25T04:17:07.997Z,69.95
2019-05-25T04:19:35.420Z,70.02
2019-05-25T04:22:02.180Z,70.79
2019-05-25T04:24:28.914Z,70.77
2019-05-25T04:26:55.706Z,71.28
2019-05-25T04:29:22.459Z,71.34
2019-05-25T04:31:49.158Z,71.00
2019-05-25T04:34:15.872Z,70.89
2019-05-25T04:36:42.859Z,71.02
2019-05-25T04:39:09.598Z,70.78
2019-05-25T04:41:36.299Z,70.87
2019-05-25T04:44:05.560Z,71.18
2019-05-25T04:46:33.883Z,71.10
2019-05-25T04:49:00.625Z,71.07
2019-05-25T04:51:27.432Z,71.08
2019-05-25T04:53:54.146Z,70.77
2019-05-25T04:56:20.889Z,70.50
2019-05-25T04:58:47.600Z,70.59
2019-05-25T05:01:14.336Z,70.79
2019-05-25T05:03:41.031Z,70.39
2019-05-25T05:06:07.843Z,70.52
2019-05-25T05:08:35.693Z,70.24
2019-05-25T05:11:02.759Z,69.12
2019-05-25T05:13:29.535Z,64.88
2019-05-25T05:15:56.645Z,63.13
2019-05-25T05:18:23.377Z,61.56
2019-05-25T05:20:50.405Z,60.00
2019-05-25T05:23:17.178Z,60.24
2019-05-25T05:25:43.862Z,59.77
2019-05-25T05:28:10.949Z,58.93
2019-05-25T05:30:37.867Z,58.57
2019-05-25T05:33:04.918Z,57.77
2019-05-25T05:35:31.762Z,56.89
2019-05-25T05:37:58.651Z,56.82
2019-05-25T05:40:25.352Z,56.24
2019-05-25T05:42:52.069Z,56.14
2019-05-25T05:45:18.780Z,57.04
2019-05-25T05:47:45.644Z,56.52
2019-05-25T05:50:12.377Z,55.68
2019-05-25T05:52:39.141Z,55.20
2019-05-25T05:55:07.894Z,54.04
2019-05-25T05:57:34.717Z,53.49
2019-05-25T06:00:01.550Z,54.09
2019-05-25T06:02:28.277Z,53.17
2019-05-25T06:04:55.333Z,53.20
2019-05-25T06:07:27.449Z,53.96
2019-05-25T06:09:55.245Z,52.75
2019-05-25T06:12:27.856Z,52.71
2019-05-25T06:14:54.573Z,52.89
2019-05-25T06:17:21.433Z,53.69
2019-05-25T06:19:48.167Z,54.19
2019-05-25T06:22:14.912Z,54.33
2019-05-25T06:24:41.661Z,55.05
2019-05-25T06:27:26.478Z,54.76
2019-05-25T06:29:43.622Z,54.49
2019-05-25T06:32:12.627Z,54.55
2019-05-25T06:34:40.580Z,53.83
2019-05-25T06:37:08.089Z,53.14
2019-05-25T06:39:35.211Z,53.14
2019-05-25T06:42:02.315Z,53.05
2019-05-25T06:44:31.121Z,53.11
2019-05-25T06:46:57.847Z,53.16
2019-05-25T06:49:24.622Z,52.85
2019-05-25T06:51:51.324Z,52.84
2019-05-25T06:54:18.511Z,51.99
2019-05-25T06:56:45.231Z,52.42
2019-05-25T06:59:13.287Z,52.79
2019-05-25T07:01:41.487Z,52.95
2019-05-25T07:04:08.187Z,53.26
2019-05-25T07:06:34.929Z,52.57
2019-05-25T07:09:01.659Z,52.23
2019-05-25T07:11:28.479Z,52.32
2019-05-25T07:14:01.126Z,51.96
2019-05-25T07:16:32.821Z,51.46
2019-05-25T07:18:59.687Z,50.59
2019-05-25T07:21:26.589Z,50.20
2019-05-25T07:23:53.447Z,50.66
2019-05-25T07:26:20.255Z,50.79
2019-05-25T07:28:47.013Z,50.96
2019-05-25T07:31:13.845Z,50.02
2019-05-25T07:33:40.634Z,50.22
2019-05-25T07:36:08.019Z,50.23
2019-05-25T07:38:35.282Z,50.08
2019-05-25T07:41:02.016Z,50.37
2019-05-25T07:43:28.763Z,50.54
2019-05-25T07:45:55.530Z,50.09
2019-05-25T07:48:22.280Z,49.83
2019-05-25T07:50:49.027Z,49.14
2019-05-25T07:53:16.973Z,48.22
2019-05-25T07:55:43.820Z,48.13
2019-05-25T07:58:17.598Z,47.53
2019-05-25T08:00:39.354Z,48.04
2019-05-25T08:03:06.416Z,48.12
2019-05-25T08:05:33.478Z,48.19
2019-05-25T08:08:00.293Z,47.93
2019-05-25T08:10:27.525Z,47.74
2019-05-25T08:12:55.639Z,47.36
2019-05-25T08:15:22.493Z,47.55
2019-05-25T08:17:49.562Z,47.14
2019-05-25T08:20:16.264Z,47.11
2019-05-25T08:22:43.001Z,47.20
2019-05-25T08:25:09.739Z,47.75
2019-05-25T08:27:36.559Z,48.11
2019-05-25T08:30:04.543Z,48.16
2019-05-25T08:32:31.652Z,48.08
2019-05-25T08:35:01.197Z,47.56
2019-05-25T08:37:27.914Z,47.19
2019-05-25T08:39:54.741Z,47.35
2019-05-25T08:42:21.552Z,47.63
2019-05-25T08:44:48.343Z,47.42
2019-05-25T08:47:15.037Z,47.30
2019-05-25T08:49:41.952Z,47.68
2019-05-25T08:52:08.690Z,47.66
2019-05-25T08:54:35.389Z,47.05
2019-05-25T08:57:02.292Z,47.22
2019-05-25T08:59:29.074Z,46.85
2019-05-25T09:01:55.770Z,46.94
2019-05-25T09:04:25.549Z,47.33
2019-05-25T09:06:52.496Z,47.34
2019-05-25T09:09:19.334Z,46.83
2019-05-25T09:11:46.081Z,46.56
2019-05-25T09:14:12.830Z,46.14
2019-05-25T09:16:39.597Z,46.10
2019-05-25T09:19:06.303Z,46.32
2019-05-25T09:21:33.095Z,46.64
2019-05-25T09:23:59.833Z,46.20
2019-05-25T09:26:26.924Z,45.91
2019-05-25T09:29:03.942Z,45.72
2019-05-25T09:31:22.597Z,45.88
2019-05-25T09:33:49.742Z,45.57
2019-05-25T09:36:16.956Z,44.76
2019-05-25T09:38:43.715Z,44.39
2019-05-25T09:41:11.560Z,44.08
2019-05-25T09:43:38.670Z,44.82
2019-05-25T09:46:05.438Z,44.65
2019-05-25T09:48:32.202Z,45.33
2019-05-25T09:50:58.949Z,45.50
2019-05-25T09:53:25.694Z,44.91
2019-05-25T09:55:52.436Z,44.98
2019-05-25T09:58:21.329Z,44.22
2019-05-25T10:00:53.027Z,44.36
2019-05-25T10:03:19.768Z,44.61
2019-05-25T10:05:46.525Z,44.53
2019-05-25T10:08:15.795Z,44.43
2019-05-25T10:10:42.613Z,44.00
2019-05-25T10:13:09.475Z,44.14
2019-05-25T10:15:36.336Z,44.46
2019-05-25T10:18:03.065Z,44.27
2019-05-25T10:20:29.959Z,43.64
2019-05-25T10:22:56.721Z,43.57
2019-05-25T10:25:23.945Z,42.70
2019-05-25T10:27:50.726Z,42.74
2019-05-25T10:30:20.450Z,41.60
2019-05-25T10:32:47.200Z,40.80
2019-05-25T10:35:14.898Z,40.22
2019-05-25T10:37:41.683Z,40.10
2019-05-25T10:40:08.494Z,39.94
2019-05-25T10:42:38.114Z,39.76
2019-05-25T10:45:05.046Z,38.51
2019-05-25T10:47:32.207Z,39.03
2019-05-25T10:49:59.330Z,38.82
2019-05-25T10:52:26.096Z,37.71
2019-05-25T10:54:52.805Z,38.07
2019-05-25T10:57:19.584Z,37.99
2019-05-25T10:59:53.125Z,36.99
2019-05-25T11:02:15.015Z,37.28
2019-05-25T11:04:41.767Z,38.45
2019-05-25T11:07:08.522Z,38.60
2019-05-25T11:09:37.454Z,38.64
2019-05-25T11:12:05.639Z,38.34
2019-05-25T11:14:32.368Z,38.02
2019-05-25T11:16:59.234Z,37.91
2019-05-25T11:19:29.065Z,37.59
2019-05-25T11:21:55.930Z,36.57
2019-05-25T11:24:22.660Z,36.51
2019-05-25T11:26:49.528Z,34.78
2019-05-25T11:29:16.257Z,34.87
2019-05-25T11:31:43.472Z,33.22
2019-05-25T11:34:10.207Z,34.07
2019-05-25T11:36:36.958Z,33.62
2019-05-25T11:39:05.326Z,32.79
2019-05-25T11:41:32.476Z,32.79
2019-05-25T11:43:59.244Z,32.34
2019-05-25T11:46:26.104Z,32.13
2019-05-25T11:48:52.922Z,31.75
2019-05-25T11:51:19.635Z,31.89
2019-05-25T11:53:46.379Z,32.10
2019-05-25T11:56:13.412Z,31.60
2019-05-25T11:58:47.569Z,30.43
2019-05-25T12:01:10.886Z,30.69
2019-05-25T12:03:37.700Z,30.47
2019-05-25T12:06:04.425Z,30.61
2019-05-25T12:08:31.479Z,30.81
2019-05-25T12:10:58.234Z,30.93
2019-05-25T12:13:25.005Z,29.78
2019-05-25T12:15:51.738Z,30.28
2019-05-25T12:18:18.477Z,30.85
2019-05-25T12:20:45.214Z,30.85
2019-05-25T12:23:12.287Z,30.53
2019-05-25T12:25:39.062Z,30.71
2019-05-25T12:28:05.804Z,30.78
2019-05-25T12:30:40.746Z,30.83
2019-05-25T12:33:01.209Z,30.24
2019-05-25T12:35:28.323Z,30.24
2019-05-25T12:37:55.090Z,30.60
2019-05-25T12:40:24.428Z,30.80
2019-05-25T12:42:51.192Z,29.35
2019-05-25T12:45:18.370Z,29.19
2019-05-25T12:47:45.590Z,29.42
2019-05-25T12:50:16.029Z,28.50
2019-05-25T12:52:42.727Z,27.83
2019-05-25T12:55:09.483Z,27.43
2019-05-25T12:57:36.572Z,27.71
2019-05-25T13:00:14.770Z,27.40
2019-05-25T13:02:32.444Z,27.34
2019-05-25T13:04:59.236Z,26.84
2019-05-25T13:07:26.023Z,27.18
2019-05-25T13:09:52.873Z,26.74
2019-05-25T13:12:19.619Z,26.71
2019-05-25T13:14:46.442Z,26.53
2019-05-25T13:17:13.172Z,26.21
2019-05-25T13:19:40.298Z,26.21
2019-05-25T13:22:08.476Z,26.29
2019-05-25T13:24:35.151Z,26.24
2019-05-25T13:27:01.874Z,26.39
2019-05-25T13:29:28.630Z,25.53
2019-05-25T13:31:55.318Z,24.85
2019-05-25T13:34:22.067Z,25.12
2019-05-25T13:36:48.866Z,25.26
2019-05-25T13:39:15.657Z,24.64
2019-05-25T13:41:42.395Z,24.63
2019-05-25T13:44:09.255Z,24.47
2019-05-25T13:46:36.457Z,24.66
2019-05-25T13:49:03.247Z,25.04
2019-05-25T13:51:29.966Z,26.04
2019-05-25T13:53:56.847Z,25.55
2019-05-25T13:56:23.611Z,25.79
2019-05-25T13:58:50.440Z,26.53
2019-05-25T14:01:28.052Z,26.38
2019-05-25T14:03:47.288Z,26.48
2019-05-25T14:06:14.101Z,27.30
2019-05-25T14:08:41.147Z,27.02
2019-05-25T14:11:07.902Z,27.05
2019-05-25T14:13:34.625Z,26.81
2019-05-25T14:16:07.117Z,27.71
2019-05-25T14:18:30.111Z,28.34
2019-05-25T14:20:57.308Z,28.24
2019-05-25T14:23:24.001Z,27.95
2019-05-25T14:25:50.764Z,27.99
2019-05-25T14:28:17.910Z,26.41
2019-05-25T14:30:45.103Z,25.97
2019-05-25T14:33:12.500Z,26.59
2019-05-25T14:35:39.375Z,26.26
2019-05-25T14:38:06.198Z,26.40
2019-05-25T14:40:32.985Z,25.56
2019-05-25T14:43:02.423Z,26.33
2019-05-25T14:45:29.213Z,25.95
2019-05-25T14:47:58.849Z,25.56
2019-05-25T14:50:25.878Z,26.53
2019-05-25T14:52:52.697Z,26.92
2019-05-25T14:55:19.856Z,27.04
2019-05-25T14:57:46.675Z,26.55
2019-05-25T15:00:14.017Z,26.36
2019-05-25T15:02:41.087Z,26.29
2019-05-25T15:05:08.147Z,27.12
2019-05-25T15:07:34.859Z,27.64
2019-05-25T15:10:01.681Z,27.89
2019-05-25T15:12:28.843Z,28.30
2019-05-25T15:14:57.774Z,29.14
2019-05-25T15:17:27.783Z,30.05
2019-05-25T15:19:54.780Z,30.80
2019-05-25T15:22:21.490Z,31.26
2019-05-25T15:24:48.229Z,31.63
2019-05-25T15:27:14.943Z,30.67
2019-05-25T15:29:41.784Z,29.97
2019-05-25T15:32:19.490Z,29.16
2019-05-25T15:34:37.621Z,29.19
2019-05-25T15:37:04.623Z,29.22
2019-05-25T15:39:31.380Z,29.43
2019-05-25T15:41:58.075Z,30.21
2019-05-25T15:44:24.799Z,30.33
2019-05-25T15:46:51.557Z,30.33
2019-05-25T15:49:18.332Z,29.40
2019-05-25T15:51:45.082Z,29.48
2019-05-25T15:54:11.779Z,29.42
2019-05-25T15:56:38.543Z,29.60
2019-05-25T15:59:05.263Z,30.12
2019-05-25T16:01:31.978Z,31.12
2019-05-25T16:03:58.741Z,31.13
2019-05-25T16:06:25.975Z,31.06
2019-05-25T16:08:52.658Z,30.99
2019-05-25T16:11:19.365Z,31.77
2019-05-25T16:13:46.135Z,32.16
2019-05-25T16:16:12.944Z,32.64
2019-05-25T16:18:40.788Z,32.63
2019-05-25T16:21:11.300Z,32.90
2019-05-25T16:23:38.182Z,33.26
2019-05-25T16:26:04.879Z,33.53
2019-05-25T16:28:31.763Z,33.66
2019-05-25T16:30:59.534Z,33.04
2019-05-25T16:33:26.511Z,32.70
2019-05-25T16:35:57.730Z,32.87
2019-05-25T16:38:22.316Z,33.03
2019-05-25T16:40:50.220Z,32.94
2019-05-25T16:43:17.527Z,32.67
2019-05-25T16:45:44.231Z,32.02
2019-05-25T16:48:10.978Z,32.07
2019-05-25T16:50:37.685Z,33.09
2019-05-25T16:53:04.422Z,33.84
2019-05-25T16:55:31.139Z,34.15
2019-05-25T16:57:57.856Z,34.07
2019-05-25T17:00:27.816Z,33.91
2019-05-25T17:02:58.273Z,34.23
2019-05-25T17:05:26.409Z,34.33
2019-05-25T17:07:54.213Z,34.69
2019-05-25T17:10:20.960Z,35.23
2019-05-25T17:12:47.676Z,35.43
2019-05-25T17:15:14.435Z,35.42
2019-05-25T17:17:41.237Z,35.11
2019-05-25T17:20:08.349Z,34.82
2019-05-25T17:22:35.038Z,35.45
2019-05-25T17:25:02.188Z,35.99
2019-05-25T17:27:31.739Z,36.14
2019-05-25T17:29:58.487Z,36.59
2019-05-25T17:32:25.211Z,37.05
2019-05-25T17:34:51.957Z,37.40
2019-05-25T17:37:18.657Z,37.72
2019-05-25T17:39:45.485Z,37.47
2019-05-25T17:42:12.757Z,37.42
2019-05-25T17:44:39.510Z,37.46
2019-05-25T17:47:06.210Z,37.91
2019-05-25T17:49:32.931Z,38.32
2019-05-25T17:51:59.669Z,38.79
2019-05-25T17:54:26.404Z,38.86
2019-05-25T17:56:53.533Z,38.94
2019-05-25T17:59:20.285Z,38.73
2019-05-25T18:01:46.998Z,39.21
2019-05-25T18:04:13.765Z,39.19
2019-05-25T18:06:40.492Z,39.59
2019-05-25T18:09:07.320Z,40.13
2019-05-25T18:11:34.119Z,40.46
2019-05-25T18:14:00.853Z,40.56
2019-05-25T18:16:27.566Z,41.12
2019-05-25T18:18:54.302Z,41.36
2019-05-25T18:21:21.062Z,41.82
2019-05-25T18:23:47.799Z,42.23
2019-05-25T18:26:14.498Z,41.97
2019-05-25T18:28:41.229Z,41.92
2019-05-25T18:31:08.020Z,42.36
2019-05-25T18:33:35.226Z,43.03
2019-05-25T18:36:01.953Z,43.34
2019-05-25T18:38:29.052Z,43.68
2019-05-25T18:40:56.201Z,44.00
2019-05-25T18:43:23.250Z,43.94
2019-05-25T18:45:50.009Z,43.97
2019-05-25T18:48:16.845Z,44.04
2019-05-25T18:50:43.668Z,44.03
2019-05-25T18:53:10.429Z,43.18
2019-05-25T18:55:37.566Z,43.56
2019-05-25T18:58:04.289Z,43.68
2019-05-25T19:00:31.058Z,43.91
2019-05-25T19:02:58.513Z,44.14
2019-05-25T19:05:25.207Z,44.41
2019-05-25T19:07:51.925Z,44.35
2019-05-25T19:10:20.683Z,43.85
2019-05-25T19:12:47.381Z,43.55
2019-05-25T19:15:15.289Z,44.26
2019-05-25T19:17:44.441Z,44.16
2019-05-25T19:20:12.916Z,43.99
2019-05-25T19:22:39.583Z,44.50
2019-05-25T19:25:06.769Z,44.49
2019-05-25T19:27:34.765Z,43.94
2019-05-25T19:30:01.518Z,43.85
2019-05-25T19:32:32.209Z,44.62
2019-05-25T19:35:00.190Z,44.47
2019-05-25T19:37:27.311Z,44.29
2019-05-25T19:39:54.040Z,44.28
2019-05-25T19:42:20.797Z,44.85
2019-05-25T19:44:47.548Z,45.43
2019-05-25T19:47:17.134Z,44.97
2019-05-25T19:49:44.205Z,44.54
2019-05-25T19:52:11.013Z,45.34
2019-05-25T19:54:37.774Z,45.39
2019-05-25T19:57:04.643Z,45.00
2019-05-25T19:59:31.393Z,44.91
2019-05-25T20:01:58.127Z,44.87
2019-05-25T20:04:24.853Z,44.60
2019-05-25T20:06:51.703Z,44.37
2019-05-25T20:09:18.437Z,44.99
2019-05-25T20:11:45.217Z,45.51
2019-05-25T20:14:11.947Z,45.08
2019-05-25T20:16:38.693Z,44.97
2019-05-25T20:19:05.450Z,44.74
2019-05-25T20:21:32.202Z,44.79
2019-05-25T20:23:58.960Z,44.93
2019-05-25T20:26:26.090Z,45.72
2019-05-25T20:28:52.830Z,45.60
2019-05-25T20:31:19.574Z,45.59
2019-05-25T20:33:46.441Z,45.49
2019-05-25T20:36:13.185Z,45.45
2019-05-25T20:38:40.045Z,45.31
2019-05-25T20:41:06.781Z,46.08
2019-05-25T20:43:34.188Z,47.00
2019-05-25T20:46:00.897Z,47.34
2019-05-25T20:48:27.742Z,47.45
2019-05-25T20:50:54.461Z,47.28
2019-05-25T20:53:21.173Z,47.68
2019-05-25T20:55:47.905Z,47.75
2019-05-25T20:58:17.511Z,47.46
2019-05-25T21:00:44.348Z,47.06
2019-05-25T21:03:13.977Z,46.71
2019-05-25T21:05:50.337Z,46.53
2019-05-25T21:08:11.769Z,46.55
2019-05-25T21:10:38.837Z,46.74
2019-05-25T21:13:05.590Z,47.00
2019-05-25T21:15:32.307Z,47.06
2019-05-25T21:17:59.160Z,47.00
2019-05-25T21:20:25.905Z,46.99
2019-05-25T21:22:52.780Z,47.02
2019-05-25T21:25:19.530Z,47.14
2019-05-25T21:27:46.348Z,47.00
2019-05-25T21:30:13.290Z,47.00
2019-05-25T21:32:40.009Z,47.53
2019-05-25T21:35:06.929Z,47.86
2019-05-25T21:37:33.769Z,48.57
2019-05-25T21:40:00.871Z,48.36
2019-05-25T21:42:27.613Z,48.01
2019-05-25T21:44:54.324Z,48.03
2019-05-25T21:47:21.068Z,47.90
2019-05-25T21:49:47.820Z,48.09
2019-05-25T21:52:15.981Z,47.99
2019-05-25T21:54:45.733Z,47.97
2019-05-25T21:57:12.482Z,48.38
2019-05-25T21:59:42.383Z,48.45
2019-05-25T22:02:10.142Z,48.47
2019-05-25T22:04:36.986Z,48.64
2019-05-25T22:07:03.789Z,48.91
2019-05-25T22:09:30.540Z,49.41
2019-05-25T22:11:57.396Z,50.40
2019-05-25T22:14:24.260Z,50.43
2019-05-25T22:16:51.162Z,51.22
2019-05-25T22:19:18.003Z,51.32
2019-05-25T22:21:46.208Z,50.56
2019-05-25T22:24:13.262Z,50.07
2019-05-25T22:26:39.998Z,49.88
2019-05-25T22:29:06.918Z,50.43
2019-05-25T22:31:34.088Z,50.47
2019-05-25T22:34:00.851Z,50.46
2019-05-25T22:36:39.850Z,51.57
2019-05-25T22:38:56.524Z,52.16
2019-05-25T22:41:25.482Z,52.72
2019-05-25T22:43:52.370Z,53.41
2019-05-25T22:46:19.129Z,53.99
2019-05-25T22:48:46.201Z,54.32
2019-05-25T22:51:13.250Z,54.39
2019-05-25T22:53:40.012Z,54.46
2019-05-25T22:56:06.762Z,54.10
2019-05-25T22:58:33.904Z,54.22
2019-05-25T23:01:00.620Z,54.65
2019-05-25T23:03:27.464Z,55.09
2019-05-25T23:05:54.228Z,55.14
2019-05-25T23:08:20.968Z,55.95
2019-05-25T23:10:47.964Z,56.37
2019-05-25T23:13:17.650Z,56.32
2019-05-25T23:15:44.427Z,56.11
2019-05-25T23:18:11.182Z,56.37
2019-05-25T23:20:38.020Z,56.68
2019-05-25T23:23:04.724Z,56.90
2019-05-25T23:25:31.586Z,56.70
2019-05-25T23:27:59.896Z,56.72
2019-05-25T23:30:28.126Z,56.22
2019-05-25T23:32:54.850Z,56.03
2019-05-25T23:35:21.918Z,56.56
2019-05-25T23:37:48.612Z,57.15
2019-05-25T23:40:15.894Z,57.28
2019-05-25T23:42:42.853Z,57.49
2019-05-25T23:45:09.549Z,57.60
2019-05-25T23:47:36.438Z,58.09
2019-05-25T23:50:04.235Z,58.49
2019-05-25T23:52:31.263Z,58.87
2019-05-25T23:54:57.974Z,59.01
2019-05-25T23:57:24.725Z,59.31
2019-05-25T23:59:52.048Z,59.71
